sensor_id;sensor_type;location;lat;lon;timestamp;pressure;altitude;pressure_sealevel;temperature;humidity
13732;BME280;6937;56.096;12.664;2023-04-28T00:01:59;101450.00;;;6.20;100.00
13732;BME280;6937;56.096;12.664;2023-04-28T00:04:25;101450.00;;;6.20;100.00
13732;BME280;6937;56.096;12.664;2023-04-28T00:06:50;101452.81;;;6.17;100.00
13732;BME280;6937;56.096;12.664;2023-04-28T00:09:16;101446.59;;;6.18;100.00
13732;BME280;6937;56.096;12.664;2023-04-28T00:11:43;101449.22;;;6.18;100.00
13732;BME280;6937;56.096;12.664;2023-04-28T00:14:09;101448.41;;;6.16;100.00
13732;BME280;6937;56.096;12.664;2023-04-28T00:16:34;101445.91;;;6.13;100.00
13732;BME280;6937;56.096;12.664;2023-04-28T00:19:00;101444.97;;;6.14;100.00
13732;BME280;6937;56.096;12.664;2023-04-28T00:21:25;101443.16;;;6.15;100.00
13732;BME280;6937;56.096;12.664;2023-04-28T00:23:52;101452.09;;;6.14;100.00
13732;BME280;6937;56.096;12.664;2023-04-28T00:26:18;101451.25;;;6.12;100.00
13732;BME280;6937;56.096;12.664;2023-04-28T00:28:43;101448.94;;;6.04;100.00
13732;BME280;6937;56.096;12.664;2023-04-28T00:31:10;101441.38;;;5.95;100.00
13732;BME280;6937;56.096;12.664;2023-04-28T00:33:37;101435.66;;;5.84;100.00
13732;BME280;6937;56.096;12.664;2023-04-28T00:36:02;101421.03;;;5.74;100.00
13732;BME280;6937;56.096;12.664;2023-04-28T00:38:28;101422.94;;;5.70;100.00
13732;BME280;6937;56.096;12.664;2023-04-28T00:40:53;101430.09;;;5.68;100.00
13732;BME280;6937;56.096;12.664;2023-04-28T00:43:19;101430.16;;;5.67;100.00
13732;BME280;6937;56.096;12.664;2023-04-28T00:45:44;101421.25;;;5.69;100.00
13732;BME280;6937;56.096;12.664;2023-04-28T00:48:09;101413.38;;;5.66;100.00
13732;BME280;6937;56.096;12.664;2023-04-28T00:50:35;101414.34;;;5.65;100.00
13732;BME280;6937;56.096;12.664;2023-04-28T00:53:01;101409.22;;;5.61;100.00
13732;BME280;6937;56.096;12.664;2023-04-28T00:55:30;101405.75;;;5.59;100.00
13732;BME280;6937;56.096;12.664;2023-04-28T00:57:58;101405.00;;;5.55;100.00
13732;BME280;6937;56.096;12.664;2023-04-28T01:00:23;101420.19;;;5.52;100.00
13732;BME280;6937;56.096;12.664;2023-04-28T01:02:50;101414.31;;;5.44;100.00
13732;BME280;6937;56.096;12.664;2023-04-28T01:05:16;101407.47;;;5.40;100.00
13732;BME280;6937;56.096;12.664;2023-04-28T01:07:42;101415.41;;;5.40;100.00
13732;BME280;6937;56.096;12.664;2023-04-28T01:10:07;101404.91;;;5.36;100.00
13732;BME280;6937;56.096;12.664;2023-04-28T01:12:33;101411.94;;;5.38;100.00
13732;BME280;6937;56.096;12.664;2023-04-28T01:14:58;101410.28;;;5.35;100.00
13732;BME280;6937;56.096;12.664;2023-04-28T01:17:24;101405.72;;;5.39;100.00
13732;BME280;6937;56.096;12.664;2023-04-28T01:19:49;101409.25;;;5.39;100.00
13732;BME280;6937;56.096;12.664;2023-04-28T01:22:17;101410.88;;;5.42;100.00
13732;BME280;6937;56.096;12.664;2023-04-28T01:24:42;101409.97;;;5.43;100.00
13732;BME280;6937;56.096;12.664;2023-04-28T01:27:08;101409.03;;;5.44;100.00
13732;BME280;6937;56.096;12.664;2023-04-28T01:29:34;101407.31;;;5.43;100.00
13732;BME280;6937;56.096;12.664;2023-04-28T01:31:59;101404.59;;;5.44;100.00
13732;BME280;6937;56.096;12.664;2023-04-28T01:34:25;101415.16;;;5.46;100.00
13732;BME280;6937;56.096;12.664;2023-04-28T01:36:50;101409.78;;;5.47;100.00
13732;BME280;6937;56.096;12.664;2023-04-28T01:39:16;101401.06;;;5.44;100.00
13732;BME280;6937;56.096;12.664;2023-04-28T01:41:41;101409.84;;;5.46;100.00
13732;BME280;6937;56.096;12.664;2023-04-28T01:44:07;101402.69;;;5.48;100.00
13732;BME280;6937;56.096;12.664;2023-04-28T01:46:33;101393.94;;;5.46;100.00
13732;BME280;6937;56.096;12.664;2023-04-28T01:48:59;101400.97;;;5.47;100.00
13732;BME280;6937;56.096;12.664;2023-04-28T01:51:24;101403.50;;;5.50;100.00
13732;BME280;6937;56.096;12.664;2023-04-28T01:53:51;101402.56;;;5.51;100.00
13732;BME280;6937;56.096;12.664;2023-04-28T01:56:17;101399.84;;;5.52;100.00
13732;BME280;6937;56.096;12.664;2023-04-28T01:58:42;101396.31;;;5.52;100.00
13732;BME280;6937;56.096;12.664;2023-04-28T02:01:07;101398.09;;;5.51;100.00
13732;BME280;6937;56.096;12.664;2023-04-28T02:03:33;101392.03;;;5.49;100.00
13732;BME280;6937;56.096;12.664;2023-04-28T02:05:58;101398.97;;;5.52;100.00
13732;BME280;6937;56.096;12.664;2023-04-28T02:08:24;101396.41;;;5.50;100.00
13732;BME280;6937;56.096;12.664;2023-04-28T02:10:49;101394.53;;;5.52;100.00
13732;BME280;6937;56.096;12.664;2023-04-28T02:13:15;101398.19;;;5.50;100.00
13732;BME280;6937;56.096;12.664;2023-04-28T02:15:41;101383.28;;;5.47;100.00
13732;BME280;6937;56.096;12.664;2023-04-28T02:18:07;101398.25;;;5.48;100.00
13732;BME280;6937;56.096;12.664;2023-04-28T02:20:32;101399.19;;;5.47;100.00
13732;BME280;6937;56.096;12.664;2023-04-28T02:22:58;101395.78;;;5.44;100.00
13732;BME280;6937;56.096;12.664;2023-04-28T02:25:23;101396.59;;;5.46;100.00
13732;BME280;6937;56.096;12.664;2023-04-28T02:27:49;101392.88;;;5.50;100.00
13732;BME280;6937;56.096;12.664;2023-04-28T02:30:14;101395.59;;;5.48;100.00
13732;BME280;6937;56.096;12.664;2023-04-28T02:32:39;101386.03;;;5.44;100.00
13732;BME280;6937;56.096;12.664;2023-04-28T02:35:05;101401.94;;;5.44;100.00
13732;BME280;6937;56.096;12.664;2023-04-28T02:37:31;101397.03;;;5.35;100.00
13732;BME280;6937;56.096;12.664;2023-04-28T02:39:56;101397.25;;;5.29;100.00
13732;BME280;6937;56.096;12.664;2023-04-28T02:42:22;101397.53;;;5.23;100.00
13732;BME280;6937;56.096;12.664;2023-04-28T02:44:47;101396.09;;;5.14;100.00
13732;BME280;6937;56.096;12.664;2023-04-28T02:47:12;101399.13;;;5.05;100.00
13732;BME280;6937;56.096;12.664;2023-04-28T02:49:38;101397.66;;;4.98;100.00
13732;BME280;6937;56.096;12.664;2023-04-28T02:52:03;101398.81;;;4.91;100.00
13732;BME280;6937;56.096;12.664;2023-04-28T02:54:29;101394.47;;;4.88;100.00
13732;BME280;6937;56.096;12.664;2023-04-28T02:56:55;101391.94;;;4.85;100.00
13732;BME280;6937;56.096;12.664;2023-04-28T02:59:22;101385.97;;;4.80;100.00
13732;BME280;6937;56.096;12.664;2023-04-28T03:01:48;101394.09;;;4.76;100.00
13732;BME280;6937;56.096;12.664;2023-04-28T03:04:14;101389.09;;;4.68;100.00
13732;BME280;6937;56.096;12.664;2023-04-28T03:06:39;101383.28;;;4.59;100.00
13732;BME280;6937;56.096;12.664;2023-04-28T03:09:06;101381.78;;;4.52;100.00
13732;BME280;6937;56.096;12.664;2023-04-28T03:11:31;101385.53;;;4.46;100.00
13732;BME280;6937;56.096;12.664;2023-04-28T03:13:56;101377.69;;;4.43;100.00
13732;BME280;6937;56.096;12.664;2023-04-28T03:16:22;101380.41;;;4.42;100.00
13732;BME280;6937;56.096;12.664;2023-04-28T03:18:47;101381.47;;;4.36;100.00
13732;BME280;6937;56.096;12.664;2023-04-28T03:21:13;101382.47;;;4.33;100.00
13732;BME280;6937;56.096;12.664;2023-04-28T03:23:38;101375.44;;;4.32;100.00
13732;BME280;6937;56.096;12.664;2023-04-28T03:26:03;101379.94;;;4.30;100.00
13732;BME280;6937;56.096;12.664;2023-04-28T03:28:29;101369.34;;;4.30;100.00
13732;BME280;6937;56.096;12.664;2023-04-28T03:30:54;101379.88;;;4.32;100.00
13732;BME280;6937;56.096;12.664;2023-04-28T03:33:20;101377.22;;;4.32;100.00
13732;BME280;6937;56.096;12.664;2023-04-28T03:35:45;101368.31;;;4.34;100.00
13732;BME280;6937;56.096;12.664;2023-04-28T03:38:11;101358.66;;;4.33;100.00
13732;BME280;6937;56.096;12.664;2023-04-28T03:40:36;101366.44;;;4.38;100.00
13732;BME280;6937;56.096;12.664;2023-04-28T03:43:02;101362.75;;;4.42;100.00
13732;BME280;6937;56.096;12.664;2023-04-28T03:45:27;101358.13;;;4.47;100.00
13732;BME280;6937;56.096;12.664;2023-04-28T03:47:52;101361.53;;;4.51;100.00
13732;BME280;6937;56.096;12.664;2023-04-28T03:50:18;101354.31;;;4.54;100.00
13732;BME280;6937;56.096;12.664;2023-04-28T03:52:43;101355.19;;;4.55;100.00
13732;BME280;6937;56.096;12.664;2023-04-28T03:55:09;101365.78;;;4.55;100.00
13732;BME280;6937;56.096;12.664;2023-04-28T03:57:34;101366.81;;;4.51;100.00
13732;BME280;6937;56.096;12.664;2023-04-28T04:00:00;101358.13;;;4.47;100.00
13732;BME280;6937;56.096;12.664;2023-04-28T04:02:25;101359.91;;;4.47;100.00
13732;BME280;6937;56.096;12.664;2023-04-28T04:04:51;101352.84;;;4.47;100.00
13732;BME280;6937;56.096;12.664;2023-04-28T04:07:16;101360.84;;;4.46;100.00
13732;BME280;6937;56.096;12.664;2023-04-28T04:09:42;101347.66;;;4.44;100.00
13732;BME280;6937;56.096;12.664;2023-04-28T04:12:07;101349.31;;;4.47;100.00
13732;BME280;6937;56.096;12.664;2023-04-28T04:14:32;101350.16;;;4.49;100.00
13732;BME280;6937;56.096;12.664;2023-04-28T04:16:57;101348.16;;;4.54;100.00
13732;BME280;6937;56.096;12.664;2023-04-28T04:19:23;101349.84;;;4.56;100.00
13732;BME280;6937;56.096;12.664;2023-04-28T04:21:51;101332.06;;;4.60;100.00
13732;BME280;6937;56.096;12.664;2023-04-28T04:24:16;101331.19;;;4.59;100.00
13732;BME280;6937;56.096;12.664;2023-04-28T04:26:42;101336.31;;;4.64;100.00
13732;BME280;6937;56.096;12.664;2023-04-28T04:29:07;101327.38;;;4.66;100.00
13732;BME280;6937;56.096;12.664;2023-04-28T04:31:33;101336.88;;;4.72;100.00
13732;BME280;6937;56.096;12.664;2023-04-28T04:33:58;101327.03;;;4.75;100.00
13732;BME280;6937;56.096;12.664;2023-04-28T04:36:23;101324.97;;;4.83;100.00
13732;BME280;6937;56.096;12.664;2023-04-28T04:38:49;101325.69;;;4.87;100.00
13732;BME280;6937;56.096;12.664;2023-04-28T04:41:14;101320.94;;;4.95;100.00
13732;BME280;6937;56.096;12.664;2023-04-28T04:43:40;101321.47;;;5.03;100.00
13732;BME280;6937;56.096;12.664;2023-04-28T04:46:06;101311.53;;;5.10;100.00
13732;BME280;6937;56.096;12.664;2023-04-28T04:48:31;101315.00;;;5.10;100.00
13732;BME280;6937;56.096;12.664;2023-04-28T04:50:57;101325.25;;;5.19;100.00
13732;BME280;6937;56.096;12.664;2023-04-28T04:53:22;101329.41;;;5.25;100.00
13732;BME280;6937;56.096;12.664;2023-04-28T04:55:48;101316.09;;;5.26;100.00
13732;BME280;6937;56.096;12.664;2023-04-28T04:58:13;101329.19;;;5.31;100.00
13732;BME280;6937;56.096;12.664;2023-04-28T05:00:38;101324.59;;;5.34;100.00
13732;BME280;6937;56.096;12.664;2023-04-28T05:03:04;101331.56;;;5.37;100.00
13732;BME280;6937;56.096;12.664;2023-04-28T05:05:30;101321.56;;;5.44;100.00
13732;BME280;6937;56.096;12.664;2023-04-28T05:07:56;101335.44;;;5.50;100.00
13732;BME280;6937;56.096;12.664;2023-04-28T05:10:23;101321.91;;;5.56;100.00
13732;BME280;6937;56.096;12.664;2023-04-28T05:12:49;101325.09;;;5.64;100.00
13732;BME280;6937;56.096;12.664;2023-04-28T05:15:14;101325.63;;;5.72;100.00
13732;BME280;6937;56.096;12.664;2023-04-28T05:17:40;101329.88;;;5.76;100.00
13732;BME280;6937;56.096;12.664;2023-04-28T05:20:06;101330.47;;;5.83;100.00
13732;BME280;6937;56.096;12.664;2023-04-28T05:22:31;101334.66;;;5.89;100.00
13732;BME280;6937;56.096;12.664;2023-04-28T05:24:57;101338.97;;;5.91;100.00
13732;BME280;6937;56.096;12.664;2023-04-28T05:27:22;101331.81;;;5.93;100.00
13732;BME280;6937;56.096;12.664;2023-04-28T05:29:47;101330.84;;;5.96;100.00
13732;BME280;6937;56.096;12.664;2023-04-28T05:32:13;101332.66;;;5.94;100.00
13732;BME280;6937;56.096;12.664;2023-04-28T05:34:38;101331.16;;;5.88;100.00
13732;BME280;6937;56.096;12.664;2023-04-28T05:37:03;101333.88;;;5.87;100.00
13732;BME280;6937;56.096;12.664;2023-04-28T05:39:29;101333.81;;;5.88;100.00
13732;BME280;6937;56.096;12.664;2023-04-28T05:41:54;101346.03;;;5.92;100.00
13732;BME280;6937;56.096;12.664;2023-04-28T05:44:20;101341.16;;;6.02;100.00
13732;BME280;6937;56.096;12.664;2023-04-28T05:46:45;101342.59;;;6.09;100.00
13732;BME280;6937;56.096;12.664;2023-04-28T05:49:11;101339.63;;;6.16;100.00
13732;BME280;6937;56.096;12.664;2023-04-28T05:51:36;101340.00;;;6.27;100.00
13732;BME280;6937;56.096;12.664;2023-04-28T05:54:02;101333.91;;;6.25;100.00
13732;BME280;6937;56.096;12.664;2023-04-28T05:56:28;101339.06;;;6.28;100.00
13732;BME280;6937;56.096;12.664;2023-04-28T05:58:53;101343.38;;;6.31;100.00
13732;BME280;6937;56.096;12.664;2023-04-28T06:01:19;101350.25;;;6.35;100.00
13732;BME280;6937;56.096;12.664;2023-04-28T06:03:44;101347.47;;;6.38;100.00
13732;BME280;6937;56.096;12.664;2023-04-28T06:06:10;101339.50;;;6.38;100.00
13732;BME280;6937;56.096;12.664;2023-04-28T06:08:37;101351.69;;;6.42;100.00
13732;BME280;6937;56.096;12.664;2023-04-28T06:11:02;101346.97;;;6.49;100.00
13732;BME280;6937;56.096;12.664;2023-04-28T06:13:27;101360.91;;;6.54;100.00
13732;BME280;6937;56.096;12.664;2023-04-28T06:15:53;101360.69;;;6.58;100.00
13732;BME280;6937;56.096;12.664;2023-04-28T06:18:19;101365.66;;;6.66;100.00
13732;BME280;6937;56.096;12.664;2023-04-28T06:20:44;101376.06;;;6.70;100.00
13732;BME280;6937;56.096;12.664;2023-04-28T06:23:09;101375.56;;;6.81;100.00
13732;BME280;6937;56.096;12.664;2023-04-28T06:25:35;101375.56;;;6.81;100.00
13732;BME280;6937;56.096;12.664;2023-04-28T06:28:01;101375.25;;;6.87;100.00
13732;BME280;6937;56.096;12.664;2023-04-28T06:30:27;101378.47;;;6.94;100.00
13732;BME280;6937;56.096;12.664;2023-04-28T06:32:52;101392.63;;;6.94;100.00
13732;BME280;6937;56.096;12.664;2023-04-28T06:35:18;101393.28;;;6.99;100.00
13732;BME280;6937;56.096;12.664;2023-04-28T06:37:43;101394.91;;;7.02;100.00
13732;BME280;6937;56.096;12.664;2023-04-28T06:40:09;101402.69;;;7.06;100.00
13732;BME280;6937;56.096;12.664;2023-04-28T06:42:35;101404.19;;;7.12;100.00
13732;BME280;6937;56.096;12.664;2023-04-28T06:45:01;101403.59;;;7.05;100.00
13732;BME280;6937;56.096;12.664;2023-04-28T06:47:26;101411.47;;;7.08;100.00
13732;BME280;6937;56.096;12.664;2023-04-28T06:49:52;101418.41;;;7.11;100.00
13732;BME280;6937;56.096;12.664;2023-04-28T06:52:18;101425.13;;;7.01;100.00
13732;BME280;6937;56.096;12.664;2023-04-28T06:54:45;101429.97;;;7.10;100.00
13732;BME280;6937;56.096;12.664;2023-04-28T06:57:11;101426.03;;;7.18;100.00
13732;BME280;6937;56.096;12.664;2023-04-28T06:59:36;101434.59;;;7.06;100.00
13732;BME280;6937;56.096;12.664;2023-04-28T07:02:02;101437.25;;;7.06;100.00
13732;BME280;6937;56.096;12.664;2023-04-28T07:04:27;101437.09;;;7.09;100.00
13732;BME280;6937;56.096;12.664;2023-04-28T07:06:53;101427.50;;;7.24;100.00
13732;BME280;6937;56.096;12.664;2023-04-28T07:09:18;101433.28;;;7.34;100.00
13732;BME280;6937;56.096;12.664;2023-04-28T07:11:43;101431.44;;;7.53;100.00
13732;BME280;6937;56.096;12.664;2023-04-28T07:14:09;101431.84;;;7.62;100.00
13732;BME280;6937;56.096;12.664;2023-04-28T07:16:35;101427.38;;;7.63;100.00
13732;BME280;6937;56.096;12.664;2023-04-28T07:19:00;101433.34;;;7.68;100.00
13732;BME280;6937;56.096;12.664;2023-04-28T07:21:26;101434.34;;;7.65;100.00
13732;BME280;6937;56.096;12.664;2023-04-28T07:23:52;101445.34;;;7.58;100.00
13732;BME280;6937;56.096;12.664;2023-04-28T07:26:21;101439.06;;;7.60;100.00
13732;BME280;6937;56.096;12.664;2023-04-28T07:28:46;101441.06;;;7.72;100.00
13732;BME280;6937;56.096;12.664;2023-04-28T07:31:12;101449.44;;;7.65;100.00
13732;BME280;6937;56.096;12.664;2023-04-28T07:33:37;101440.28;;;7.53;100.00
13732;BME280;6937;56.096;12.664;2023-04-28T07:36:03;101450.31;;;7.65;100.00
13732;BME280;6937;56.096;12.664;2023-04-28T07:38:28;101445.25;;;7.78;100.00
13732;BME280;6937;56.096;12.664;2023-04-28T07:40:54;101448.63;;;7.82;100.00
13732;BME280;6937;56.096;12.664;2023-04-28T07:43:19;101449.09;;;7.90;100.00
13732;BME280;6937;56.096;12.664;2023-04-28T07:45:45;101449.41;;;8.01;100.00
13732;BME280;6937;56.096;12.664;2023-04-28T07:48:13;101446.13;;;8.13;100.00
13732;BME280;6937;56.096;12.664;2023-04-28T07:50:39;101454.44;;;8.24;100.00
13732;BME280;6937;56.096;12.664;2023-04-28T07:53:04;101453.31;;;8.11;100.00
13732;BME280;6937;56.096;12.664;2023-04-28T07:55:29;101458.34;;;8.17;100.00
13732;BME280;6937;56.096;12.664;2023-04-28T07:57:55;101458.41;;;8.15;100.00
13732;BME280;6937;56.096;12.664;2023-04-28T08:00:23;101459.69;;;8.08;100.00
13732;BME280;6937;56.096;12.664;2023-04-28T08:02:48;101456.59;;;7.99;100.00
13732;BME280;6937;56.096;12.664;2023-04-28T08:05:15;101456.38;;;8.03;100.00
13732;BME280;6937;56.096;12.664;2023-04-28T08:07:41;101465.28;;;8.02;100.00
13732;BME280;6937;56.096;12.664;2023-04-28T08:10:08;101459.19;;;8.00;100.00
13732;BME280;6937;56.096;12.664;2023-04-28T08:12:34;101471.78;;;8.14;100.00
13732;BME280;6937;56.096;12.664;2023-04-28T08:14:59;101471.19;;;8.26;100.00
13732;BME280;6937;56.096;12.664;2023-04-28T08:17:25;101475.97;;;8.19;100.00
13732;BME280;6937;56.096;12.664;2023-04-28T08:19:51;101476.59;;;8.24;100.00
13732;BME280;6937;56.096;12.664;2023-04-28T08:22:16;101482.97;;;8.39;100.00
13732;BME280;6937;56.096;12.664;2023-04-28T08:24:41;101477.78;;;8.53;100.00
13732;BME280;6937;56.096;12.664;2023-04-28T08:27:07;101473.50;;;8.66;100.00
13732;BME280;6937;56.096;12.664;2023-04-28T08:29:33;101479.00;;;8.81;100.00
13732;BME280;6937;56.096;12.664;2023-04-28T08:31:58;101459.63;;;8.77;100.00
13732;BME280;6937;56.096;12.664;2023-04-28T08:34:25;101464.16;;;8.92;100.00
13732;BME280;6937;56.096;12.664;2023-04-28T08:36:51;101477.59;;;9.22;100.00
13732;BME280;6937;56.096;12.664;2023-04-28T08:39:17;101475.34;;;9.30;100.00
13732;BME280;6937;56.096;12.664;2023-04-28T08:41:44;101479.13;;;9.10;100.00
13732;BME280;6937;56.096;12.664;2023-04-28T08:44:10;101483.66;;;9.08;100.00
13732;BME280;6937;56.096;12.664;2023-04-28T08:46:40;101475.19;;;9.17;100.00
13732;BME280;6937;56.096;12.664;2023-04-28T08:49:14;101476.47;;;9.10;100.00
13732;BME280;6937;56.096;12.664;2023-04-28T08:51:45;101479.84;;;8.97;100.00
13732;BME280;6937;56.096;12.664;2023-04-28T08:54:14;101482.38;;;9.15;100.00
13732;BME280;6937;56.096;12.664;2023-04-28T08:56:41;101491.28;;;9.32;100.00
13732;BME280;6937;56.096;12.664;2023-04-28T08:59:10;101481.78;;;9.26;100.00
13732;BME280;6937;56.096;12.664;2023-04-28T09:01:35;101481.38;;;9.18;100.00
13732;BME280;6937;56.096;12.664;2023-04-28T09:04:01;101499.63;;;9.26;100.00
13732;BME280;6937;56.096;12.664;2023-04-28T09:06:31;101494.00;;;9.30;100.00
13732;BME280;6937;56.096;12.664;2023-04-28T09:09:20;101501.28;;;9.59;100.00
13732;BME280;6937;56.096;12.664;2023-04-28T09:14:17;101514.75;;;9.56;100.00
13732;BME280;6937;56.096;12.664;2023-04-28T09:16:43;101512.38;;;9.52;100.00
13732;BME280;6937;56.096;12.664;2023-04-28T09:19:08;101523.75;;;9.55;100.00
13732;BME280;6937;56.096;12.664;2023-04-28T09:21:54;101526.75;;;9.65;100.00
13732;BME280;6937;56.096;12.664;2023-04-28T09:24:33;101539.47;;;9.60;100.00
13732;BME280;6937;56.096;12.664;2023-04-28T09:27:00;101540.50;;;9.57;100.00
13732;BME280;6937;56.096;12.664;2023-04-28T09:29:27;101530.59;;;9.75;100.00
13732;BME280;6937;56.096;12.664;2023-04-28T09:31:53;101534.06;;;9.93;100.00
13732;BME280;6937;56.096;12.664;2023-04-28T09:34:19;101540.56;;;10.03;100.00
13732;BME280;6937;56.096;12.664;2023-04-28T09:36:45;101542.19;;;10.05;100.00
13732;BME280;6937;56.096;12.664;2023-04-28T09:39:10;101537.47;;;9.95;100.00
13732;BME280;6937;56.096;12.664;2023-04-28T09:41:37;101533.69;;;9.99;100.00
13732;BME280;6937;56.096;12.664;2023-04-28T09:44:13;101534.97;;;10.07;100.00
13732;BME280;6937;56.096;12.664;2023-04-28T09:46:39;101538.78;;;9.88;100.00
13732;BME280;6937;56.096;12.664;2023-04-28T09:49:05;101552.56;;;9.96;100.00
13732;BME280;6937;56.096;12.664;2023-04-28T09:51:30;101548.59;;;9.87;100.00
13732;BME280;6937;56.096;12.664;2023-04-28T09:53:58;101541.63;;;9.85;100.00
13732;BME280;6937;56.096;12.664;2023-04-28T09:56:26;101549.47;;;10.03;100.00
13732;BME280;6937;56.096;12.664;2023-04-28T09:58:52;101542.47;;;10.16;100.00
13732;BME280;6937;56.096;12.664;2023-04-28T10:01:18;101549.34;;;10.21;100.00
13732;BME280;6937;56.096;12.664;2023-04-28T10:03:44;101540.41;;;10.22;100.00
13732;BME280;6937;56.096;12.664;2023-04-28T10:06:10;101554.81;;;10.49;100.00
13732;BME280;6937;56.096;12.664;2023-04-28T10:08:36;101542.84;;;10.70;100.00
13732;BME280;6937;56.096;12.664;2023-04-28T10:11:01;101547.63;;;10.79;100.00
13732;BME280;6937;56.096;12.664;2023-04-28T10:13:27;101542.88;;;10.98;100.00
13732;BME280;6937;56.096;12.664;2023-04-28T10:15:53;101532.06;;;11.14;100.00
13732;BME280;6937;56.096;12.664;2023-04-28T10:18:21;101532.34;;;11.38;100.00
13732;BME280;6937;56.096;12.664;2023-04-28T10:20:52;101524.78;;;11.44;100.00
13732;BME280;6937;56.096;12.664;2023-04-28T10:25:56;101537.88;;;10.78;100.00
13732;BME280;6937;56.096;12.664;2023-04-28T10:28:24;101545.91;;;10.78;100.00
13732;BME280;6937;56.096;12.664;2023-04-28T10:31:16;101554.34;;;11.14;100.00
13732;BME280;6937;56.096;12.664;2023-04-28T10:33:42;101558.06;;;11.12;100.00
13732;BME280;6937;56.096;12.664;2023-04-28T10:36:09;101557.97;;;11.28;100.00
13732;BME280;6937;56.096;12.664;2023-04-28T10:38:35;101564.66;;;11.49;100.00
13732;BME280;6937;56.096;12.664;2023-04-28T10:41:01;101552.88;;;11.51;100.00
13732;BME280;6937;56.096;12.664;2023-04-28T10:56:19;101550.31;;;11.50;100.00
13732;BME280;6937;56.096;12.664;2023-04-28T10:58:59;101553.03;;;11.36;100.00
13732;BME280;6937;56.096;12.664;2023-04-28T11:01:28;101554.72;;;11.37;100.00
13732;BME280;6937;56.096;12.664;2023-04-28T11:03:56;101560.47;;;11.17;100.00
13732;BME280;6937;56.096;12.664;2023-04-28T11:09:01;101562.63;;;11.81;100.00
13732;BME280;6937;56.096;12.664;2023-04-28T11:11:31;101550.22;;;12.06;100.00
13732;BME280;6937;56.096;12.664;2023-04-28T11:16:49;101552.75;;;12.22;100.00
13732;BME280;6937;56.096;12.664;2023-04-28T11:19:17;101552.91;;;11.92;100.00
13732;BME280;6937;56.096;12.664;2023-04-28T11:21:43;101558.13;;;12.08;100.00
13732;BME280;6937;56.096;12.664;2023-04-28T11:24:11;101564.00;;;12.00;100.00
13732;BME280;6937;56.096;12.664;2023-04-28T11:26:37;101550.28;;;12.32;100.00
13732;BME280;6937;56.096;12.664;2023-04-28T11:29:03;101557.63;;;12.42;100.00
13732;BME280;6937;56.096;12.664;2023-04-28T11:31:28;101558.34;;;12.32;100.00
13732;BME280;6937;56.096;12.664;2023-04-28T11:33:59;101552.19;;;12.17;100.00
13732;BME280;6937;56.096;12.664;2023-04-28T11:36:29;101543.69;;;12.10;100.00
13732;BME280;6937;56.096;12.664;2023-04-28T11:38:56;101545.50;;;12.49;100.00
13732;BME280;6937;56.096;12.664;2023-04-28T11:41:22;101551.78;;;12.75;100.00
13732;BME280;6937;56.096;12.664;2023-04-28T11:43:48;101559.09;;;12.98;100.00
13732;BME280;6937;56.096;12.664;2023-04-28T11:46:20;101556.94;;;12.91;100.00
13732;BME280;6937;56.096;12.664;2023-04-28T11:48:46;101552.97;;;12.32;100.00
13732;BME280;6937;56.096;12.664;2023-04-28T11:51:50;101555.00;;;12.28;100.00
13732;BME280;6937;56.096;12.664;2023-04-28T11:54:24;101549.69;;;12.41;100.00
13732;BME280;6937;56.096;12.664;2023-04-28T11:56:50;101551.25;;;12.70;100.00
13732;BME280;6937;56.096;12.664;2023-04-28T11:59:16;101553.19;;;12.81;100.00
13732;BME280;6937;56.096;12.664;2023-04-28T12:01:49;101542.69;;;13.03;100.00
13732;BME280;6937;56.096;12.664;2023-04-28T12:04:40;101544.63;;;13.14;100.00
13732;BME280;6937;56.096;12.664;2023-04-28T12:07:08;101539.03;;;13.17;100.00
13732;BME280;6937;56.096;12.664;2023-04-28T12:09:35;101534.28;;;12.82;100.00
13732;BME280;6937;56.096;12.664;2023-04-28T12:12:03;101527.16;;;12.43;100.00
13732;BME280;6937;56.096;12.664;2023-04-28T12:14:29;101525.78;;;12.50;100.00
13732;BME280;6937;56.096;12.664;2023-04-28T12:16:57;101526.41;;;12.41;100.00
13732;BME280;6937;56.096;12.664;2023-04-28T12:19:22;101536.13;;;12.94;100.00
13732;BME280;6937;56.096;12.664;2023-04-28T12:22:03;101520.03;;;13.69;100.00
13732;BME280;6937;56.096;12.664;2023-04-28T12:24:29;101520.50;;;13.50;100.00
13732;BME280;6937;56.096;12.664;2023-04-28T12:27:12;101516.72;;;13.65;100.00
13732;BME280;6937;56.096;12.664;2023-04-28T12:29:39;101519.94;;;13.70;100.00
13732;BME280;6937;56.096;12.664;2023-04-28T12:32:06;101514.88;;;13.66;100.00
13732;BME280;6937;56.096;12.664;2023-04-28T12:34:32;101529.09;;;13.55;100.00
13732;BME280;6937;56.096;12.664;2023-04-28T12:37:02;101515.09;;;13.14;100.00
13732;BME280;6937;56.096;12.664;2023-04-28T12:39:28;101519.06;;;13.08;100.00
13732;BME280;6937;56.096;12.664;2023-04-28T12:41:53;101511.75;;;12.97;100.00
13732;BME280;6937;56.096;12.664;2023-04-28T12:44:24;101514.34;;;13.24;100.00
13732;BME280;6937;56.096;12.664;2023-04-28T12:46:50;101517.34;;;13.20;100.00
13732;BME280;6937;56.096;12.664;2023-04-28T12:49:16;101510.69;;;12.87;100.00
13732;BME280;6937;56.096;12.664;2023-04-28T12:51:41;101522.06;;;12.91;100.00
13732;BME280;6937;56.096;12.664;2023-04-28T12:54:07;101511.09;;;13.44;100.00
13732;BME280;6937;56.096;12.664;2023-04-28T12:56:33;101516.53;;;13.55;100.00
13732;BME280;6937;56.096;12.664;2023-04-28T12:58:59;101503.97;;;13.56;100.00
13732;BME280;6937;56.096;12.664;2023-04-28T13:01:27;101507.09;;;13.86;100.00
13732;BME280;6937;56.096;12.664;2023-04-28T13:03:52;101501.59;;;14.12;100.00
13732;BME280;6937;56.096;12.664;2023-04-28T13:06:18;101501.84;;;13.36;100.00
13732;BME280;6937;56.096;12.664;2023-04-28T13:08:44;101499.31;;;12.84;100.00